Morton S Bouchard Jr — WSE9678 — position and weather

sailwx.info

Track history (hours):
 
Tides and Currents Weather Stations Pressure Air Temp Water Temp Dewpoint Dewpoint Depression Visibility Wind Speed Wind Dir Waves Ship Positions

Morton S Bouchard Jr

Owner: BOUCHARD TRANSPORTATION CO INC, MELVILLE, NY. More information available from US FCC via Universal Licensing System and Coast Guard Vessel Documentation Center.

Last reported at 2017-Feb-26 07:33 UTC. Time now 2017-Feb-26 07:41 UTC.
Position N 40°40' W 074°02'.

Length 33 m; draft 5 m.

Type: Tug. MMSI: 367006550.

Date/timePositionNaut miles runAvg speedWind from/ knotsBaromVisibWave heightAir tempDewpointWater temp
2017-Feb-26 07:33N 40°40' W 074°02'0 0.0
2017-Feb-26 06:33N 40°39' W 074°02'0 0.0
2017-Feb-26 05:34N 40°39' W 074°02'0 0.0
2017-Feb-26 04:33N 40°39' W 074°02'0 0.0
2017-Feb-26 03:33N 40°40' W 074°02'0 0.0
2017-Feb-26 02:34N 40°40' W 074°02'0 0.0
2017-Feb-26 01:34N 40°40' W 074°02'0 0.0
2017-Feb-26 00:33N 40°40' W 074°02'0 0.1
2017-Feb-25 23:33N 40°40' W 074°02'0 0.1
2017-Feb-25 22:33N 40°40' W 074°02'0 0.0
2017-Feb-25 21:34N 40°40' W 074°02'3 2.5
2017-Feb-25 20:33N 40°39' W 074°05'7 6.9
2017-Feb-25 19:33N 40°35' W 074°13'2 0.5
2017-Feb-25 16:17N 40°34' W 074°14'1 1.1
2017-Feb-25 15:32N 40°33' W 074°13'7 7.4
2017-Feb-25 14:33N 40°39' W 074°07'6 5.6
2017-Feb-25 13:33N 40°41' W 074°00'0 0.0
2017-Feb-25 12:34N 40°41' W 074°00'0 0.0
2017-Feb-25 11:34N 40°41' W 074°00'0 0.0
2017-Feb-25 10:33N 40°41' W 074°00'0 0.1
2017-Feb-25 09:34N 40°41' W 074°00'0 0.0
2017-Feb-25 08:33N 40°41' W 074°00'0 0.0
2017-Feb-25 07:33N 40°41' W 074°00'0 0.0
2017-Feb-25 06:33N 40°41' W 074°00'0 0.0
2017-Feb-25 05:33N 40°41' W 074°00'0 0.0
2017-Feb-25 04:33N 40°41' W 074°00'0 0.0
2017-Feb-25 03:33N 40°41' W 074°00'8 7.6
2017-Feb-25 02:33N 40°39' W 074°10'2 1.7
2017-Feb-25 01:33N 40°38' W 074°12'3 2.5
2017-Feb-25 00:32N 40°36' W 074°12'0 0.0
2017-Feb-24 23:33N 40°36' W 074°12'5 5.3
2017-Feb-24 22:33N 40°39' W 074°07'0 0.0
2017-Feb-24 21:33N 40°39' W 074°07'0 0.0
2017-Feb-24 20:33N 40°39' W 074°07'0 0.0
2017-Feb-24 19:33N 40°39' W 074°07'1 0.6
2017-Feb-24 18:33N 40°39' W 074°07'0 0.0
2017-Feb-24 17:33N 40°39' W 074°07'0 0.0
2017-Feb-24 16:33N 40°39' W 074°07'0 0.0
2017-Feb-24 15:33N 40°39' W 074°07'4 3.7
2017-Feb-24 14:33N 40°40' W 074°02'3 3.3
2017-Feb-24 13:33N 40°42' W 073°60'8 7.8
2017-Feb-24 12:33N 40°48' W 073°53'8 8.0
2017-Feb-24 11:33N 40°52' W 073°44'1 0.0
2017-Feb-22 19:16N 40°52' W 073°45'6 7.7
2017-Feb-22 18:33N 40°48' W 073°50'6 6.1
2017-Feb-22 17:33N 40°46' W 073°57'5 5.4
2017-Feb-22 16:33N 40°41' W 074°01'4 4.1
2017-Feb-22 15:33N 40°37' W 074°03'0 0.3
2017-Feb-22 14:33N 40°37' W 074°04'1 0.8
2017-Feb-22 13:33N 40°36' W 074°03'1 1.1
2017-Feb-22 12:33N 40°37' W 074°04'3 2.8
2017-Feb-22 11:33N 40°39' W 074°07'5 4.5
2017-Feb-22 10:33N 40°36' W 074°12'1 0.7
2017-Feb-22 09:33N 40°35' W 074°12'0 0.1
2017-Feb-22 07:05N 40°35' W 074°12'4 7.0
2017-Feb-22 06:33N 40°39' W 074°10'8 8.2
2017-Feb-22 05:33N 40°41' W 074°00'5 4.9
2017-Feb-22 04:33N 40°39' W 074°06'4 3.9
2017-Feb-22 03:33N 40°39' W 074°11'7 7.1
2017-Feb-22 02:33N 40°33' W 074°15'0 0.1
2017-Feb-22 01:33N 40°33' W 074°15'4 3.9
2017-Feb-22 00:29N 40°36' W 074°12'0 0.4
2017-Feb-21 23:33N 40°36' W 074°12'0 0.0
2017-Feb-21 22:33N 40°36' W 074°12'0 0.0
2017-Feb-21 21:33N 40°36' W 074°12'0 0.0
2017-Feb-21 20:33N 40°36' W 074°12'0 0.3
2017-Feb-21 19:33N 40°35' W 074°12'4 4.2
2017-Feb-21 18:33N 40°39' W 074°09'4 4.5
2017-Feb-21 17:33N 40°39' W 074°03'3 3.0
2017-Feb-21 16:33N 40°39' W 074°07'4 4.0
2017-Feb-21 15:33N 40°40' W 074°02'0 0.0
2017-Feb-21 14:33N 40°40' W 074°02'0 0.0
2017-Feb-21 13:33N 40°40' W 074°02'0 0.0
2017-Feb-21 12:33N 40°40' W 074°02'0 0.1
2017-Feb-21 11:33N 40°40' W 074°02'0 0.1
2017-Feb-21 10:33N 40°40' W 074°02'0 0.0
2017-Feb-21 09:33N 40°40' W 074°02'0 0.0
2017-Feb-21 08:33N 40°40' W 074°02'0 0.1
2017-Feb-21 07:33N 40°40' W 074°02'0 0.1
2017-Feb-21 06:33N 40°40' W 074°02'0 0.0
2017-Feb-21 05:33N 40°40' W 074°02'0 0.0
2017-Feb-21 04:33N 40°40' W 074°02'0 0.0
2017-Feb-21 03:33N 40°40' W 074°02'0 0.0
2017-Feb-21 02:33N 40°40' W 074°02'0 0.0
2017-Feb-21 01:33N 40°40' W 074°02'0 0.0
2017-Feb-21 00:33N 40°40' W 074°02'0 0.0
2017-Feb-20 23:33N 40°40' W 074°02'0 0.0
2017-Feb-20 22:33N 40°40' W 074°02'0 0.0
2017-Feb-20 21:33N 40°40' W 074°02'0 0.0
2017-Feb-20 20:33N 40°40' W 074°02'0 0.0
2017-Feb-20 19:33N 40°40' W 074°02'0 0.0
2017-Feb-20 18:33N 40°40' W 074°02'0 0.0
2017-Feb-20 17:33N 40°40' W 074°02'0 0.0
2017-Feb-20 16:33N 40°40' W 074°02'0 0.0
2017-Feb-20 15:33N 40°40' W 074°02'0 0.0
2017-Feb-20 14:33N 40°40' W 074°02'0 0.0
2017-Feb-20 13:33N 40°40' W 074°02'0 0.0
2017-Feb-20 12:33N 40°40' W 074°02'0 0.0
2017-Feb-20 11:33N 40°40' W 074°02'0 0.5
2017-Feb-20 10:33N 40°41' W 074°01'9 8.5
2017-Feb-20 09:33N 40°47' W 073°55'5 5.4
2017-Feb-20 08:32N 40°48' W 073°48'6 6.0
2017-Feb-20 07:33N 40°53' W 073°43'3 0.1
2017-Feb-18 21:33N 40°50' W 073°46'7 6.7
2017-Feb-18 20:33N 40°48' W 073°54'8 7.8
2017-Feb-18 19:33N 40°42' W 074°00'5 4.9
2017-Feb-18 18:33N 40°37' W 074°03'5 5.5
2017-Feb-18 17:33N 40°32' W 074°02'4 3.5
2017-Feb-18 16:33N 40°29' W 074°05'8 3.4
2017-Feb-18 14:13N 40°33' W 074°15'0 0.2
2017-Feb-18 13:32N 40°33' W 074°15'0 0.0
2017-Feb-18 12:33N 40°33' W 074°15'0 0.0
2017-Feb-18 11:32N 40°33' W 074°15'0 0.2
2017-Feb-18 10:33N 40°33' W 074°15'0 0.3
2017-Feb-18 09:33N 40°33' W 074°15'0 0.0
2017-Feb-18 08:33N 40°33' W 074°15'3 3.2
2017-Feb-18 07:32N 40°35' W 074°12'4 4.3
2017-Feb-18 06:33N 40°39' W 074°08'7 7.4
2017-Feb-18 05:33N 40°33' W 074°15'3 0.3
2017-Feb-17 20:27N 40°35' W 074°12'1 0.7
2017-Feb-17 19:28N 40°36' W 074°12'3 3.7
2017-Feb-17 18:33N 40°38' W 074°10'1 1.5
2017-Feb-17 17:33N 40°40' W 074°08'2 1.6
2017-Feb-17 16:33N 40°39' W 074°07'0 0.4
2017-Feb-17 15:33N 40°38' W 074°07'0 0.0
2017-Feb-17 14:33N 40°38' W 074°07'0 0.0
2017-Feb-17 13:33N 40°38' W 074°07'0 0.0
2017-Feb-17 12:33N 40°38' W 074°07'0 0.1
2017-Feb-17 11:33N 40°39' W 074°07'0 0.0
2017-Feb-17 10:33N 40°39' W 074°07'5 5.2
2017-Feb-17 09:32N 40°35' W 074°13'0 0.2
2017-Feb-17 08:18N 40°35' W 074°12'0 0.0
2017-Feb-17 07:30N 40°35' W 074°12'3 2.6
2017-Feb-17 06:33N 40°33' W 074°14'2 1.7
2017-Feb-17 05:33N 40°34' W 074°13'2 2.0
2017-Feb-17 04:33N 40°36' W 074°12'1 1.1
2017-Feb-17 03:33N 40°38' W 074°12'4 4.2
2017-Feb-17 02:33N 40°39' W 074°07'7 7.3
2017-Feb-17 01:33N 40°43' W 073°59'7 7.2
2017-Feb-17 00:33N 40°48' W 073°52'6 6.0
2017-Feb-16 23:33N 40°51' W 073°46'3 3.2
2017-Feb-16 22:33N 40°54' W 073°44'3 2.9
2017-Feb-16 21:30N 40°55' W 073°40'  
Track history (hours):
 
Tides and Currents Weather Stations Pressure Air Temp Water Temp Dewpoint Dewpoint Depression Visibility Wind Speed Wind Dir Waves Ship Positions

Morton S Bouchard Jr

Owner: BOUCHARD TRANSPORTATION CO INC, MELVILLE, NY. More information available from US FCC via Universal Licensing System and Coast Guard Vessel Documentation Center.

Last reported at 2017-Feb-26 07:33 UTC. Time now 2017-Feb-26 07:41 UTC.
Position N 40°40' W 074°02'.

Length 33 m; draft 5 m.

Type: Tug. MMSI: 367006550.

Date/timePositionNaut miles runAvg speedWind from/ knotsBaromVisibWave heightAir tempDewpointWater temp
2017-Feb-26 07:33N 40°40' W 074°02'0 0.0
2017-Feb-26 06:33N 40°39' W 074°02'0 0.0
2017-Feb-26 05:34N 40°39' W 074°02'0 0.0
2017-Feb-26 04:33N 40°39' W 074°02'0 0.0
2017-Feb-26 03:33N 40°40' W 074°02'0 0.0
2017-Feb-26 02:34N 40°40' W 074°02'0 0.0
2017-Feb-26 01:34N 40°40' W 074°02'0 0.0
2017-Feb-26 00:33N 40°40' W 074°02'0 0.1
2017-Feb-25 23:33N 40°40' W 074°02'0 0.1
2017-Feb-25 22:33N 40°40' W 074°02'0 0.0
2017-Feb-25 21:34N 40°40' W 074°02'3 2.5
2017-Feb-25 20:33N 40°39' W 074°05'7 6.9
2017-Feb-25 19:33N 40°35' W 074°13'2 0.5
2017-Feb-25 16:17N 40°34' W 074°14'1 1.1
2017-Feb-25 15:32N 40°33' W 074°13'7 7.4
2017-Feb-25 14:33N 40°39' W 074°07'6 5.6
2017-Feb-25 13:33N 40°41' W 074°00'0 0.0
2017-Feb-25 12:34N 40°41' W 074°00'0 0.0
2017-Feb-25 11:34N 40°41' W 074°00'0 0.0
2017-Feb-25 10:33N 40°41' W 074°00'0 0.1
2017-Feb-25 09:34N 40°41' W 074°00'0 0.0
2017-Feb-25 08:33N 40°41' W 074°00'0 0.0
2017-Feb-25 07:33N 40°41' W 074°00'0 0.0
2017-Feb-25 06:33N 40°41' W 074°00'0 0.0
2017-Feb-25 05:33N 40°41' W 074°00'0 0.0
2017-Feb-25 04:33N 40°41' W 074°00'0 0.0
2017-Feb-25 03:33N 40°41' W 074°00'8 7.6
2017-Feb-25 02:33N 40°39' W 074°10'2 1.7
2017-Feb-25 01:33N 40°38' W 074°12'3 2.5
2017-Feb-25 00:32N 40°36' W 074°12'0 0.0
2017-Feb-24 23:33N 40°36' W 074°12'5 5.3
2017-Feb-24 22:33N 40°39' W 074°07'0 0.0
2017-Feb-24 21:33N 40°39' W 074°07'0 0.0
2017-Feb-24 20:33N 40°39' W 074°07'0 0.0
2017-Feb-24 19:33N 40°39' W 074°07'1 0.6
2017-Feb-24 18:33N 40°39' W 074°07'0 0.0
2017-Feb-24 17:33N 40°39' W 074°07'0 0.0
2017-Feb-24 16:33N 40°39' W 074°07'0 0.0
2017-Feb-24 15:33N 40°39' W 074°07'4 3.7
2017-Feb-24 14:33N 40°40' W 074°02'3 3.3
2017-Feb-24 13:33N 40°42' W 073°60'8 7.8
2017-Feb-24 12:33N 40°48' W 073°53'8 8.0
2017-Feb-24 11:33N 40°52' W 073°44'1 0.0
2017-Feb-22 19:16N 40°52' W 073°45'6 7.7
2017-Feb-22 18:33N 40°48' W 073°50'6 6.1
2017-Feb-22 17:33N 40°46' W 073°57'5 5.4
2017-Feb-22 16:33N 40°41' W 074°01'4 4.1
2017-Feb-22 15:33N 40°37' W 074°03'0 0.3
2017-Feb-22 14:33N 40°37' W 074°04'1 0.8
2017-Feb-22 13:33N 40°36' W 074°03'1 1.1
2017-Feb-22 12:33N 40°37' W 074°04'3 2.8
2017-Feb-22 11:33N 40°39' W 074°07'5 4.5
2017-Feb-22 10:33N 40°36' W 074°12'1 0.7
2017-Feb-22 09:33N 40°35' W 074°12'0 0.1
2017-Feb-22 07:05N 40°35' W 074°12'4 7.0
2017-Feb-22 06:33N 40°39' W 074°10'8 8.2
2017-Feb-22 05:33N 40°41' W 074°00'5 4.9
2017-Feb-22 04:33N 40°39' W 074°06'4 3.9
2017-Feb-22 03:33N 40°39' W 074°11'7 7.1
2017-Feb-22 02:33N 40°33' W 074°15'0 0.1
2017-Feb-22 01:33N 40°33' W 074°15'4 3.9
2017-Feb-22 00:29N 40°36' W 074°12'0 0.4
2017-Feb-21 23:33N 40°36' W 074°12'0 0.0
2017-Feb-21 22:33N 40°36' W 074°12'0 0.0
2017-Feb-21 21:33N 40°36' W 074°12'0 0.0
2017-Feb-21 20:33N 40°36' W 074°12'0 0.3
2017-Feb-21 19:33N 40°35' W 074°12'4 4.2
2017-Feb-21 18:33N 40°39' W 074°09'4 4.5
2017-Feb-21 17:33N 40°39' W 074°03'3 3.0
2017-Feb-21 16:33N 40°39' W 074°07'4 4.0
2017-Feb-21 15:33N 40°40' W 074°02'0 0.0
2017-Feb-21 14:33N 40°40' W 074°02'0 0.0
2017-Feb-21 13:33N 40°40' W 074°02'0 0.0
2017-Feb-21 12:33N 40°40' W 074°02'0 0.1
2017-Feb-21 11:33N 40°40' W 074°02'0 0.1
2017-Feb-21 10:33N 40°40' W 074°02'0 0.0
2017-Feb-21 09:33N 40°40' W 074°02'0 0.0
2017-Feb-21 08:33N 40°40' W 074°02'0 0.1
2017-Feb-21 07:33N 40°40' W 074°02'0 0.1
2017-Feb-21 06:33N 40°40' W 074°02'0 0.0
2017-Feb-21 05:33N 40°40' W 074°02'0 0.0
2017-Feb-21 04:33N 40°40' W 074°02'0 0.0
2017-Feb-21 03:33N 40°40' W 074°02'0 0.0
2017-Feb-21 02:33N 40°40' W 074°02'0 0.0
2017-Feb-21 01:33N 40°40' W 074°02'0 0.0
2017-Feb-21 00:33N 40°40' W 074°02'0 0.0
2017-Feb-20 23:33N 40°40' W 074°02'0 0.0
2017-Feb-20 22:33N 40°40' W 074°02'0 0.0
2017-Feb-20 21:33N 40°40' W 074°02'0 0.0
2017-Feb-20 20:33N 40°40' W 074°02'0 0.0
2017-Feb-20 19:33N 40°40' W 074°02'0 0.0
2017-Feb-20 18:33N 40°40' W 074°02'0 0.0
2017-Feb-20 17:33N 40°40' W 074°02'0 0.0
2017-Feb-20 16:33N 40°40' W 074°02'0 0.0
2017-Feb-20 15:33N 40°40' W 074°02'0 0.0
2017-Feb-20 14:33N 40°40' W 074°02'0 0.0
2017-Feb-20 13:33N 40°40' W 074°02'0 0.0
2017-Feb-20 12:33N 40°40' W 074°02'0 0.0
2017-Feb-20 11:33N 40°40' W 074°02'0 0.5
2017-Feb-20 10:33N 40°41' W 074°01'9 8.5
2017-Feb-20 09:33N 40°47' W 073°55'5 5.4
2017-Feb-20 08:32N 40°48' W 073°48'6 6.0
2017-Feb-20 07:33N 40°53' W 073°43'3 0.1
2017-Feb-18 21:33N 40°50' W 073°46'7 6.7
2017-Feb-18 20:33N 40°48' W 073°54'8 7.8
2017-Feb-18 19:33N 40°42' W 074°00'5 4.9
2017-Feb-18 18:33N 40°37' W 074°03'5 5.5
2017-Feb-18 17:33N 40°32' W 074°02'4 3.5
2017-Feb-18 16:33N 40°29' W 074°05'8 3.4
2017-Feb-18 14:13N 40°33' W 074°15'0 0.2
2017-Feb-18 13:32N 40°33' W 074°15'0 0.0
2017-Feb-18 12:33N 40°33' W 074°15'0 0.0
2017-Feb-18 11:32N 40°33' W 074°15'0 0.2
2017-Feb-18 10:33N 40°33' W 074°15'0 0.3
2017-Feb-18 09:33N 40°33' W 074°15'0 0.0
2017-Feb-18 08:33N 40°33' W 074°15'3 3.2
2017-Feb-18 07:32N 40°35' W 074°12'4 4.3
2017-Feb-18 06:33N 40°39' W 074°08'7 7.4
2017-Feb-18 05:33N 40°33' W 074°15'3 0.3
2017-Feb-17 20:27N 40°35' W 074°12'1 0.7
2017-Feb-17 19:28N 40°36' W 074°12'3 3.7
2017-Feb-17 18:33N 40°38' W 074°10'1 1.5
2017-Feb-17 17:33N 40°40' W 074°08'2 1.6
2017-Feb-17 16:33N 40°39' W 074°07'0 0.4
2017-Feb-17 15:33N 40°38' W 074°07'0 0.0
2017-Feb-17 14:33N 40°38' W 074°07'0 0.0
2017-Feb-17 13:33N 40°38' W 074°07'0 0.0
2017-Feb-17 12:33N 40°38' W 074°07'0 0.1
2017-Feb-17 11:33N 40°39' W 074°07'0 0.0
2017-Feb-17 10:33N 40°39' W 074°07'5 5.2
2017-Feb-17 09:32N 40°35' W 074°13'0 0.2
2017-Feb-17 08:18N 40°35' W 074°12'0 0.0
2017-Feb-17 07:30N 40°35' W 074°12'3 2.6
2017-Feb-17 06:33N 40°33' W 074°14'2 1.7
2017-Feb-17 05:33N 40°34' W 074°13'2 2.0
2017-Feb-17 04:33N 40°36' W 074°12'1 1.1
2017-Feb-17 03:33N 40°38' W 074°12'4 4.2
2017-Feb-17 02:33N 40°39' W 074°07'7 7.3
2017-Feb-17 01:33N 40°43' W 073°59'7 7.2
2017-Feb-17 00:33N 40°48' W 073°52'6 6.0
2017-Feb-16 23:33N 40°51' W 073°46'3 3.2
2017-Feb-16 22:33N 40°54' W 073°44'3 2.9
2017-Feb-16 21:30N 40°55' W 073°40'  

Dump ship's entire track history